sensor_id;sensor_type;location;lat;lon;timestamp;P1;durP1;ratioP1;P2;durP2;ratioP2
1725;SDS011;41776;48.260;8.928;2022-09-09T00:00:46;8.07;;;1.30;;
1725;SDS011;41776;48.260;8.928;2022-09-09T00:03:16;7.20;;;1.20;;
1725;SDS011;41776;48.260;8.928;2022-09-09T00:05:47;6.97;;;1.03;;
1725;SDS011;41776;48.260;8.928;2022-09-09T00:08:24;2.60;;;1.13;;
1725;SDS011;41776;48.260;8.928;2022-09-09T00:11:00;5.40;;;1.07;;
1725;SDS011;41776;48.260;8.928;2022-09-09T00:13:32;5.37;;;1.20;;
1725;SDS011;41776;48.260;8.928;2022-09-09T00:16:05;4.80;;;1.00;;
1725;SDS011;41776;48.260;8.928;2022-09-09T00:18:44;7.33;;;1.37;;
1725;SDS011;41776;48.260;8.928;2022-09-09T00:21:18;5.50;;;1.30;;
1725;SDS011;41776;48.260;8.928;2022-09-09T00:23:50;1.87;;;1.20;;
1725;SDS011;41776;48.260;8.928;2022-09-09T00:26:21;3.10;;;0.97;;
1725;SDS011;41776;48.260;8.928;2022-09-09T00:28:57;6.53;;;1.20;;
1725;SDS011;41776;48.260;8.928;2022-09-09T00:31:32;7.07;;;1.57;;
1725;SDS011;41776;48.260;8.928;2022-09-09T00:34:00;8.13;;;1.30;;
1725;SDS011;41776;48.260;8.928;2022-09-09T00:36:35;2.93;;;1.37;;
1725;SDS011;41776;48.260;8.928;2022-09-09T00:39:03;2.97;;;1.00;;
1725;SDS011;41776;48.260;8.928;2022-09-09T00:41:33;4.93;;;1.70;;
1725;SDS011;41776;48.260;8.928;2022-09-09T00:44:15;3.57;;;0.93;;
1725;SDS011;41776;48.260;8.928;2022-09-09T00:49:38;8.33;;;1.40;;
1725;SDS011;41776;48.260;8.928;2022-09-09T00:52:17;5.30;;;1.17;;
1725;SDS011;41776;48.260;8.928;2022-09-09T00:54:55;1.90;;;0.90;;
1725;SDS011;41776;48.260;8.928;2022-09-09T00:57:29;4.87;;;1.13;;
1725;SDS011;41776;48.260;8.928;2022-09-09T00:59:58;3.73;;;0.97;;
1725;SDS011;41776;48.260;8.928;2022-09-09T01:02:35;4.03;;;1.20;;
1725;SDS011;41776;48.260;8.928;2022-09-09T01:05:07;4.10;;;1.17;;
1725;SDS011;41776;48.260;8.928;2022-09-09T01:07:40;5.03;;;1.00;;
1725;SDS011;41776;48.260;8.928;2022-09-09T01:10:15;7.33;;;1.47;;
1725;SDS011;41776;48.260;8.928;2022-09-09T01:12:52;4.17;;;1.30;;
1725;SDS011;41776;48.260;8.928;2022-09-09T01:15:22;7.63;;;1.30;;
1725;SDS011;41776;48.260;8.928;2022-09-09T01:17:56;5.73;;;1.00;;
1725;SDS011;41776;48.260;8.928;2022-09-09T01:20:28;8.93;;;1.40;;
1725;SDS011;41776;48.260;8.928;2022-09-09T01:23:08;8.00;;;1.40;;
1725;SDS011;41776;48.260;8.928;2022-09-09T01:28:48;8.40;;;1.27;;
1725;SDS011;41776;48.260;8.928;2022-09-09T01:31:18;4.40;;;1.27;;
1725;SDS011;41776;48.260;8.928;2022-09-09T01:33:47;11.97;;;1.40;;
1725;SDS011;41776;48.260;8.928;2022-09-09T01:36:15;8.77;;;1.60;;
1725;SDS011;41776;48.260;8.928;2022-09-09T01:38:47;4.27;;;1.20;;
1725;SDS011;41776;48.260;8.928;2022-09-09T01:41:14;2.60;;;1.37;;
1725;SDS011;41776;48.260;8.928;2022-09-09T01:43:40;7.43;;;1.40;;
1725;SDS011;41776;48.260;8.928;2022-09-09T01:46:08;6.63;;;1.40;;
1725;SDS011;41776;48.260;8.928;2022-09-09T01:48:38;9.83;;;1.53;;
1725;SDS011;41776;48.260;8.928;2022-09-09T01:51:07;7.53;;;1.40;;
1725;SDS011;41776;48.260;8.928;2022-09-09T01:53:35;2.77;;;0.90;;
1725;SDS011;41776;48.260;8.928;2022-09-09T01:56:04;7.63;;;1.27;;
1725;SDS011;41776;48.260;8.928;2022-09-09T01:58:43;9.87;;;1.40;;
1725;SDS011;41776;48.260;8.928;2022-09-09T02:01:23;5.30;;;1.40;;
1725;SDS011;41776;48.260;8.928;2022-09-09T02:04:00;3.30;;;1.27;;
1725;SDS011;41776;48.260;8.928;2022-09-09T02:06:35;5.28;;;1.42;;
1725;SDS011;41776;48.260;8.928;2022-09-09T02:09:04;1.20;;;0.70;;
1725;SDS011;41776;48.260;8.928;2022-09-09T02:11:33;4.88;;;1.15;;
1725;SDS011;41776;48.260;8.928;2022-09-09T02:14:03;6.87;;;1.10;;
1725;SDS011;41776;48.260;8.928;2022-09-09T02:16:37;2.07;;;0.93;;
1725;SDS011;41776;48.260;8.928;2022-09-09T02:19:07;3.92;;;1.10;;
1725;SDS011;41776;48.260;8.928;2022-09-09T02:21:38;3.05;;;1.15;;
1725;SDS011;41776;48.260;8.928;2022-09-09T02:24:08;2.60;;;1.15;;
1725;SDS011;41776;48.260;8.928;2022-09-09T02:26:38;2.00;;;0.80;;
1725;SDS011;41776;48.260;8.928;2022-09-09T02:29:07;1.83;;;0.90;;
1725;SDS011;41776;48.260;8.928;2022-09-09T02:31:39;8.40;;;1.27;;
1725;SDS011;41776;48.260;8.928;2022-09-09T02:34:10;5.93;;;1.17;;
1725;SDS011;41776;48.260;8.928;2022-09-09T02:36:40;5.78;;;1.30;;
1725;SDS011;41776;48.260;8.928;2022-09-09T02:39:10;5.93;;;1.00;;
1725;SDS011;41776;48.260;8.928;2022-09-09T02:41:38;6.28;;;1.02;;
1725;SDS011;41776;48.260;8.928;2022-09-09T02:44:08;6.32;;;1.00;;
1725;SDS011;41776;48.260;8.928;2022-09-09T02:46:48;9.98;;;1.25;;
1725;SDS011;41776;48.260;8.928;2022-09-09T02:49:32;7.82;;;1.08;;
1725;SDS011;41776;48.260;8.928;2022-09-09T02:52:08;7.57;;;1.13;;
1725;SDS011;41776;48.260;8.928;2022-09-09T02:54:40;2.78;;;0.88;;
1725;SDS011;41776;48.260;8.928;2022-09-09T02:57:10;4.83;;;0.80;;
1725;SDS011;41776;48.260;8.928;2022-09-09T02:59:38;5.45;;;1.05;;
1725;SDS011;41776;48.260;8.928;2022-09-09T03:02:07;3.53;;;0.90;;
1725;SDS011;41776;48.260;8.928;2022-09-09T03:04:35;3.35;;;1.17;;
1725;SDS011;41776;48.260;8.928;2022-09-09T03:07:01;1.92;;;1.00;;
1725;SDS011;41776;48.260;8.928;2022-09-09T03:09:28;4.47;;;1.08;;
1725;SDS011;41776;48.260;8.928;2022-09-09T03:11:55;8.63;;;1.80;;
1725;SDS011;41776;48.260;8.928;2022-09-09T03:14:21;4.03;;;1.50;;
1725;SDS011;41776;48.260;8.928;2022-09-09T03:16:50;5.18;;;1.42;;
1725;SDS011;41776;48.260;8.928;2022-09-09T03:19:18;3.90;;;1.30;;
1725;SDS011;41776;48.260;8.928;2022-09-09T03:21:44;2.73;;;1.33;;
1725;SDS011;41776;48.260;8.928;2022-09-09T03:24:12;3.67;;;1.40;;
1725;SDS011;41776;48.260;8.928;2022-09-09T03:26:39;5.90;;;1.52;;
1725;SDS011;41776;48.260;8.928;2022-09-09T03:29:06;5.53;;;1.75;;
1725;SDS011;41776;48.260;8.928;2022-09-09T03:31:33;6.22;;;2.00;;
1725;SDS011;41776;48.260;8.928;2022-09-09T03:34:00;6.22;;;1.60;;
1725;SDS011;41776;48.260;8.928;2022-09-09T03:36:29;6.32;;;1.95;;
1725;SDS011;41776;48.260;8.928;2022-09-09T03:38:56;3.95;;;1.52;;
1725;SDS011;41776;48.260;8.928;2022-09-09T03:41:22;2.67;;;1.60;;
1725;SDS011;41776;48.260;8.928;2022-09-09T03:43:49;3.30;;;1.80;;
1725;SDS011;41776;48.260;8.928;2022-09-09T03:46:16;8.02;;;1.75;;
1725;SDS011;41776;48.260;8.928;2022-09-09T03:48:42;8.65;;;1.65;;
1725;SDS011;41776;48.260;8.928;2022-09-09T03:51:09;5.13;;;1.70;;
1725;SDS011;41776;48.260;8.928;2022-09-09T03:53:37;6.67;;;1.60;;
1725;SDS011;41776;48.260;8.928;2022-09-09T03:56:04;4.60;;;1.80;;
1725;SDS011;41776;48.260;8.928;2022-09-09T03:58:34;6.03;;;2.30;;
1725;SDS011;41776;48.260;8.928;2022-09-09T04:01:02;9.47;;;2.50;;
1725;SDS011;41776;48.260;8.928;2022-09-09T04:03:30;8.13;;;2.00;;
1725;SDS011;41776;48.260;8.928;2022-09-09T04:05:58;3.17;;;1.83;;
1725;SDS011;41776;48.260;8.928;2022-09-09T04:08:27;7.27;;;2.30;;
1725;SDS011;41776;48.260;8.928;2022-09-09T04:10:54;8.87;;;2.30;;
1725;SDS011;41776;48.260;8.928;2022-09-09T04:13:23;6.60;;;2.17;;
1725;SDS011;41776;48.260;8.928;2022-09-09T04:15:52;7.30;;;1.93;;
1725;SDS011;41776;48.260;8.928;2022-09-09T04:18:19;7.10;;;2.63;;
1725;SDS011;41776;48.260;8.928;2022-09-09T04:20:46;12.73;;;2.97;;
1725;SDS011;41776;48.260;8.928;2022-09-09T04:23:13;7.70;;;3.00;;
1725;SDS011;41776;48.260;8.928;2022-09-09T04:25:43;8.53;;;2.60;;
1725;SDS011;41776;48.260;8.928;2022-09-09T04:28:13;8.47;;;2.87;;
1725;SDS011;41776;48.260;8.928;2022-09-09T04:30:39;4.53;;;2.47;;
1725;SDS011;41776;48.260;8.928;2022-09-09T04:33:06;9.97;;;2.80;;
1725;SDS011;41776;48.260;8.928;2022-09-09T04:35:33;7.43;;;2.83;;
1725;SDS011;41776;48.260;8.928;2022-09-09T04:38:00;10.87;;;2.60;;
1725;SDS011;41776;48.260;8.928;2022-09-09T04:40:27;9.43;;;2.90;;
1725;SDS011;41776;48.260;8.928;2022-09-09T04:42:54;8.55;;;3.72;;
1725;SDS011;41776;48.260;8.928;2022-09-09T04:45:22;11.33;;;2.90;;
1725;SDS011;41776;48.260;8.928;2022-09-09T04:47:48;10.60;;;2.97;;
1725;SDS011;41776;48.260;8.928;2022-09-09T04:50:15;7.83;;;3.30;;
1725;SDS011;41776;48.260;8.928;2022-09-09T04:52:41;6.43;;;2.93;;
1725;SDS011;41776;48.260;8.928;2022-09-09T04:55:08;10.23;;;2.57;;
1725;SDS011;41776;48.260;8.928;2022-09-09T04:57:35;8.37;;;3.07;;
1725;SDS011;41776;48.260;8.928;2022-09-09T05:00:02;7.93;;;2.83;;
1725;SDS011;41776;48.260;8.928;2022-09-09T05:02:31;9.57;;;3.43;;
1725;SDS011;41776;48.260;8.928;2022-09-09T05:04:58;7.47;;;2.63;;
1725;SDS011;41776;48.260;8.928;2022-09-09T05:07:26;6.47;;;3.00;;
1725;SDS011;41776;48.260;8.928;2022-09-09T05:09:54;10.23;;;3.67;;
1725;SDS011;41776;48.260;8.928;2022-09-09T05:12:20;9.02;;;3.60;;
1725;SDS011;41776;48.260;8.928;2022-09-09T05:14:47;6.40;;;2.50;;
1725;SDS011;41776;48.260;8.928;2022-09-09T05:17:13;9.10;;;3.10;;
1725;SDS011;41776;48.260;8.928;2022-09-09T05:19:42;8.18;;;3.10;;
1725;SDS011;41776;48.260;8.928;2022-09-09T05:22:09;10.47;;;3.20;;
1725;SDS011;41776;48.260;8.928;2022-09-09T05:24:36;9.45;;;3.20;;
1725;SDS011;41776;48.260;8.928;2022-09-09T05:27:03;8.35;;;3.17;;
1725;SDS011;41776;48.260;8.928;2022-09-09T05:29:31;6.90;;;2.92;;
1725;SDS011;41776;48.260;8.928;2022-09-09T05:31:58;6.23;;;2.90;;
1725;SDS011;41776;48.260;8.928;2022-09-09T05:34:24;10.37;;;3.20;;
1725;SDS011;41776;48.260;8.928;2022-09-09T05:36:52;10.27;;;3.00;;
1725;SDS011;41776;48.260;8.928;2022-09-09T05:39:19;6.80;;;3.10;;
1725;SDS011;41776;48.260;8.928;2022-09-09T05:41:45;9.70;;;3.00;;
1725;SDS011;41776;48.260;8.928;2022-09-09T05:44:11;6.97;;;2.45;;
1725;SDS011;41776;48.260;8.928;2022-09-09T05:46:38;7.72;;;2.92;;
1725;SDS011;41776;48.260;8.928;2022-09-09T05:49:04;11.23;;;3.30;;
1725;SDS011;41776;48.260;8.928;2022-09-09T05:51:31;11.45;;;2.97;;
1725;SDS011;41776;48.260;8.928;2022-09-09T05:53:59;7.57;;;3.47;;
1725;SDS011;41776;48.260;8.928;2022-09-09T05:56:26;8.02;;;3.15;;
1725;SDS011;41776;48.260;8.928;2022-09-09T05:58:53;7.50;;;3.15;;
1725;SDS011;41776;48.260;8.928;2022-09-09T06:01:21;6.50;;;2.40;;
1725;SDS011;41776;48.260;8.928;2022-09-09T06:03:49;7.33;;;2.50;;
1725;SDS011;41776;48.260;8.928;2022-09-09T06:06:17;5.50;;;2.72;;
1725;SDS011;41776;48.260;8.928;2022-09-09T06:08:46;5.18;;;2.20;;
1725;SDS011;41776;48.260;8.928;2022-09-09T06:11:15;6.60;;;2.30;;
1725;SDS011;41776;48.260;8.928;2022-09-09T06:13:43;3.08;;;2.10;;
1725;SDS011;41776;48.260;8.928;2022-09-09T06:16:11;7.93;;;1.80;;
1725;SDS011;41776;48.260;8.928;2022-09-09T06:18:39;4.78;;;2.00;;
1725;SDS011;41776;48.260;8.928;2022-09-09T06:21:07;5.00;;;2.10;;
1725;SDS011;41776;48.260;8.928;2022-09-09T06:23:39;7.07;;;1.90;;
1725;SDS011;41776;48.260;8.928;2022-09-09T06:26:06;5.95;;;1.80;;
1725;SDS011;41776;48.260;8.928;2022-09-09T06:28:36;4.40;;;1.58;;
1725;SDS011;41776;48.260;8.928;2022-09-09T06:31:04;6.38;;;1.50;;
1725;SDS011;41776;48.260;8.928;2022-09-09T06:33:32;3.83;;;1.80;;
1725;SDS011;41776;48.260;8.928;2022-09-09T06:36:00;5.60;;;1.67;;
1725;SDS011;41776;48.260;8.928;2022-09-09T06:38:27;5.50;;;1.40;;
1725;SDS011;41776;48.260;8.928;2022-09-09T06:40:54;3.40;;;1.33;;
1725;SDS011;41776;48.260;8.928;2022-09-09T06:43:23;5.35;;;1.50;;
1725;SDS011;41776;48.260;8.928;2022-09-09T06:45:55;5.78;;;1.58;;
1725;SDS011;41776;48.260;8.928;2022-09-09T06:48:23;3.35;;;1.23;;
1725;SDS011;41776;48.260;8.928;2022-09-09T06:50:50;4.10;;;1.25;;
1725;SDS011;41776;48.260;8.928;2022-09-09T06:53:17;7.50;;;1.27;;
1725;SDS011;41776;48.260;8.928;2022-09-09T06:55:46;5.38;;;1.20;;
1725;SDS011;41776;48.260;8.928;2022-09-09T06:58:13;4.88;;;1.33;;
1725;SDS011;41776;48.260;8.928;2022-09-09T07:00:39;3.92;;;1.20;;
1725;SDS011;41776;48.260;8.928;2022-09-09T07:03:07;6.45;;;1.65;;
1725;SDS011;41776;48.260;8.928;2022-09-09T07:05:35;5.35;;;1.25;;
1725;SDS011;41776;48.260;8.928;2022-09-09T07:08:02;5.90;;;1.23;;
1725;SDS011;41776;48.260;8.928;2022-09-09T07:10:29;6.43;;;1.33;;
1725;SDS011;41776;48.260;8.928;2022-09-09T07:12:56;1.92;;;0.90;;
1725;SDS011;41776;48.260;8.928;2022-09-09T07:15:22;6.00;;;1.30;;
1725;SDS011;41776;48.260;8.928;2022-09-09T07:17:49;6.38;;;1.10;;
1725;SDS011;41776;48.260;8.928;2022-09-09T07:20:18;7.47;;;1.10;;
1725;SDS011;41776;48.260;8.928;2022-09-09T07:22:45;4.25;;;1.30;;
1725;SDS011;41776;48.260;8.928;2022-09-09T07:25:11;5.78;;;1.38;;
1725;SDS011;41776;48.260;8.928;2022-09-09T07:27:39;7.38;;;1.30;;
1725;SDS011;41776;48.260;8.928;2022-09-09T07:30:06;2.78;;;1.10;;
1725;SDS011;41776;48.260;8.928;2022-09-09T07:32:33;2.15;;;1.05;;
1725;SDS011;41776;48.260;8.928;2022-09-09T07:35:00;4.80;;;1.27;;
1725;SDS011;41776;48.260;8.928;2022-09-09T07:37:27;6.03;;;1.65;;
1725;SDS011;41776;48.260;8.928;2022-09-09T07:39:57;4.18;;;1.13;;
1725;SDS011;41776;48.260;8.928;2022-09-09T07:42:23;4.57;;;1.10;;
1725;SDS011;41776;48.260;8.928;2022-09-09T07:44:53;4.60;;;1.17;;
1725;SDS011;41776;48.260;8.928;2022-09-09T07:47:20;3.05;;;0.90;;
1725;SDS011;41776;48.260;8.928;2022-09-09T07:49:46;6.28;;;1.20;;
1725;SDS011;41776;48.260;8.928;2022-09-09T07:52:14;5.85;;;1.42;;
1725;SDS011;41776;48.260;8.928;2022-09-09T07:54:42;7.93;;;1.40;;
1725;SDS011;41776;48.260;8.928;2022-09-09T07:57:13;5.63;;;1.55;;
1725;SDS011;41776;48.260;8.928;2022-09-09T07:59:40;5.20;;;1.50;;
1725;SDS011;41776;48.260;8.928;2022-09-09T08:02:08;4.85;;;1.00;;
1725;SDS011;41776;48.260;8.928;2022-09-09T08:04:36;2.42;;;1.08;;
1725;SDS011;41776;48.260;8.928;2022-09-09T08:07:02;4.63;;;1.17;;
1725;SDS011;41776;48.260;8.928;2022-09-09T08:09:29;5.28;;;1.60;;
1725;SDS011;41776;48.260;8.928;2022-09-09T08:11:58;5.45;;;1.20;;
1725;SDS011;41776;48.260;8.928;2022-09-09T08:14:26;3.88;;;1.08;;
1725;SDS011;41776;48.260;8.928;2022-09-09T08:16:53;4.22;;;1.10;;
1725;SDS011;41776;48.260;8.928;2022-09-09T08:19:19;6.57;;;1.05;;
1725;SDS011;41776;48.260;8.928;2022-09-09T08:21:46;4.30;;;0.95;;
1725;SDS011;41776;48.260;8.928;2022-09-09T08:24:14;3.42;;;1.10;;
1725;SDS011;41776;48.260;8.928;2022-09-09T08:26:45;3.17;;;1.00;;
1725;SDS011;41776;48.260;8.928;2022-09-09T08:29:15;2.63;;;1.02;;
1725;SDS011;41776;48.260;8.928;2022-09-09T08:31:43;2.03;;;0.93;;
1725;SDS011;41776;48.260;8.928;2022-09-09T08:34:11;3.25;;;0.90;;
1725;SDS011;41776;48.260;8.928;2022-09-09T08:36:39;5.00;;;0.85;;
1725;SDS011;41776;48.260;8.928;2022-09-09T08:39:11;4.10;;;0.85;;
1725;SDS011;41776;48.260;8.928;2022-09-09T08:41:41;3.67;;;0.90;;
1725;SDS011;41776;48.260;8.928;2022-09-09T08:44:26;1.95;;;0.70;;
1725;SDS011;41776;48.260;8.928;2022-09-09T08:47:03;4.93;;;0.95;;
1725;SDS011;41776;48.260;8.928;2022-09-09T08:49:59;3.95;;;0.70;;
1725;SDS011;41776;48.260;8.928;2022-09-09T08:52:36;3.65;;;1.00;;
1725;SDS011;41776;48.260;8.928;2022-09-09T08:55:11;5.22;;;0.85;;
1725;SDS011;41776;48.260;8.928;2022-09-09T08:57:47;5.60;;;0.98;;
1725;SDS011;41776;48.260;8.928;2022-09-09T09:00:17;3.50;;;0.70;;
1725;SDS011;41776;48.260;8.928;2022-09-09T09:02:46;3.90;;;0.80;;
1725;SDS011;41776;48.260;8.928;2022-09-09T09:05:22;3.60;;;0.93;;
1725;SDS011;41776;48.260;8.928;2022-09-09T09:07:58;4.68;;;1.00;;
1725;SDS011;41776;48.260;8.928;2022-09-09T09:10:37;4.65;;;1.02;;
1725;SDS011;41776;48.260;8.928;2022-09-09T09:13:13;7.03;;;0.90;;
1725;SDS011;41776;48.260;8.928;2022-09-09T09:15:43;3.53;;;0.82;;
1725;SDS011;41776;48.260;8.928;2022-09-09T09:18:14;5.25;;;0.85;;
1725;SDS011;41776;48.260;8.928;2022-09-09T09:20:45;7.15;;;1.10;;
1725;SDS011;41776;48.260;8.928;2022-09-09T09:23:21;5.70;;;1.02;;
1725;SDS011;41776;48.260;8.928;2022-09-09T09:25:49;6.03;;;1.08;;
1725;SDS011;41776;48.260;8.928;2022-09-09T09:28:18;4.47;;;0.93;;
1725;SDS011;41776;48.260;8.928;2022-09-09T09:30:52;3.72;;;0.98;;
1725;SDS011;41776;48.260;8.928;2022-09-09T09:33:23;4.00;;;0.70;;
1725;SDS011;41776;48.260;8.928;2022-09-09T09:35:53;4.80;;;1.30;;
1725;SDS011;41776;48.260;8.928;2022-09-09T09:38:21;3.30;;;0.82;;
1725;SDS011;41776;48.260;8.928;2022-09-09T09:40:49;7.25;;;1.00;;
1725;SDS011;41776;48.260;8.928;2022-09-09T09:43:18;6.38;;;1.38;;
1725;SDS011;41776;48.260;8.928;2022-09-09T09:45:47;1.90;;;1.00;;
1725;SDS011;41776;48.260;8.928;2022-09-09T09:48:15;4.15;;;1.08;;
1725;SDS011;41776;48.260;8.928;2022-09-09T09:50:46;2.45;;;0.77;;
1725;SDS011;41776;48.260;8.928;2022-09-09T09:53:23;4.18;;;0.70;;
1725;SDS011;41776;48.260;8.928;2022-09-09T09:55:56;6.28;;;0.77;;
1725;SDS011;41776;48.260;8.928;2022-09-09T09:58:25;1.90;;;0.68;;
1725;SDS011;41776;48.260;8.928;2022-09-09T10:00:54;4.93;;;0.90;;
1725;SDS011;41776;48.260;8.928;2022-09-09T10:03:27;4.63;;;0.70;;
1725;SDS011;41776;48.260;8.928;2022-09-09T10:05:55;6.93;;;0.90;;
1725;SDS011;41776;48.260;8.928;2022-09-09T10:08:23;4.60;;;0.75;;
1725;SDS011;41776;48.260;8.928;2022-09-09T10:10:56;7.60;;;0.70;;
1725;SDS011;41776;48.260;8.928;2022-09-09T10:13:33;2.55;;;0.70;;
1725;SDS011;41776;48.260;8.928;2022-09-09T10:16:13;4.05;;;0.60;;
1725;SDS011;41776;48.260;8.928;2022-09-09T10:18:56;5.82;;;0.63;;
1725;SDS011;41776;48.260;8.928;2022-09-09T10:21:32;2.92;;;0.85;;
1725;SDS011;41776;48.260;8.928;2022-09-09T10:24:16;2.53;;;0.63;;
1725;SDS011;41776;48.260;8.928;2022-09-09T10:26:58;3.42;;;0.80;;
1725;SDS011;41776;48.260;8.928;2022-09-09T10:29:35;5.93;;;0.80;;
1725;SDS011;41776;48.260;8.928;2022-09-09T10:32:20;2.50;;;0.70;;
1725;SDS011;41776;48.260;8.928;2022-09-09T10:35:12;3.20;;;0.80;;
1725;SDS011;41776;48.260;8.928;2022-09-09T10:38:02;7.03;;;1.20;;
1725;SDS011;41776;48.260;8.928;2022-09-09T10:40:41;8.70;;;0.77;;
1725;SDS011;41776;48.260;8.928;2022-09-09T10:43:19;2.50;;;0.70;;
1725;SDS011;41776;48.260;8.928;2022-09-09T10:45:56;2.03;;;0.50;;
1725;SDS011;41776;48.260;8.928;2022-09-09T10:48:40;2.13;;;0.57;;
1725;SDS011;41776;48.260;8.928;2022-09-09T10:51:25;3.38;;;0.93;;
1725;SDS011;41776;48.260;8.928;2022-09-09T10:54:04;2.65;;;0.68;;
1725;SDS011;41776;48.260;8.928;2022-09-09T10:56:40;2.28;;;0.70;;
1725;SDS011;41776;48.260;8.928;2022-09-09T10:59:16;1.75;;;0.52;;
1725;SDS011;41776;48.260;8.928;2022-09-09T11:01:49;3.95;;;0.65;;
1725;SDS011;41776;48.260;8.928;2022-09-09T11:04:21;3.60;;;0.75;;
1725;SDS011;41776;48.260;8.928;2022-09-09T11:06:54;1.33;;;0.55;;
1725;SDS011;41776;48.260;8.928;2022-09-09T11:09:22;2.53;;;0.50;;
1725;SDS011;41776;48.260;8.928;2022-09-09T11:11:53;2.25;;;0.68;;
1725;SDS011;41776;48.260;8.928;2022-09-09T11:14:22;2.95;;;0.68;;
1725;SDS011;41776;48.260;8.928;2022-09-09T11:16:55;3.20;;;0.60;;
1725;SDS011;41776;48.260;8.928;2022-09-09T11:19:26;6.57;;;0.93;;
1725;SDS011;41776;48.260;8.928;2022-09-09T11:22:00;2.50;;;0.70;;
1725;SDS011;41776;48.260;8.928;2022-09-09T11:24:29;2.70;;;0.73;;
1725;SDS011;41776;48.260;8.928;2022-09-09T11:27:01;1.35;;;0.70;;
1725;SDS011;41776;48.260;8.928;2022-09-09T11:29:46;4.70;;;0.70;;
1725;SDS011;41776;48.260;8.928;2022-09-09T11:35:30;1.27;;;0.47;;
1725;SDS011;41776;48.260;8.928;2022-09-09T11:38:18;2.53;;;0.60;;
1725;SDS011;41776;48.260;8.928;2022-09-09T11:40:47;1.97;;;0.50;;
1725;SDS011;41776;48.260;8.928;2022-09-09T11:43:23;3.70;;;0.82;;
1725;SDS011;41776;48.260;8.928;2022-09-09T11:45:53;4.30;;;0.65;;
1725;SDS011;41776;48.260;8.928;2022-09-09T11:48:23;3.15;;;0.60;;
1725;SDS011;41776;48.260;8.928;2022-09-09T11:50:57;1.77;;;0.73;;
1725;SDS011;41776;48.260;8.928;2022-09-09T11:53:26;5.63;;;0.60;;
1725;SDS011;41776;48.260;8.928;2022-09-09T11:56:03;1.23;;;0.52;;
1725;SDS011;41776;48.260;8.928;2022-09-09T11:58:39;1.90;;;0.40;;
1725;SDS011;41776;48.260;8.928;2022-09-09T12:04:04;1.63;;;0.60;;
1725;SDS011;41776;48.260;8.928;2022-09-09T12:06:41;3.75;;;1.00;;
1725;SDS011;41776;48.260;8.928;2022-09-09T12:09:15;1.20;;;0.30;;
1725;SDS011;41776;48.260;8.928;2022-09-09T12:11:46;1.52;;;0.47;;
1725;SDS011;41776;48.260;8.928;2022-09-09T12:14:19;1.67;;;0.50;;
1725;SDS011;41776;48.260;8.928;2022-09-09T12:16:47;4.00;;;0.60;;
1725;SDS011;41776;48.260;8.928;2022-09-09T12:19:15;4.75;;;0.70;;
1725;SDS011;41776;48.260;8.928;2022-09-09T12:21:51;1.73;;;0.70;;
1725;SDS011;41776;48.260;8.928;2022-09-09T12:24:29;4.18;;;0.82;;
1725;SDS011;41776;48.260;8.928;2022-09-09T12:27:05;4.00;;;0.73;;
1725;SDS011;41776;48.260;8.928;2022-09-09T12:29:40;2.85;;;0.80;;
1725;SDS011;41776;48.260;8.928;2022-09-09T12:32:14;4.32;;;0.70;;
1725;SDS011;41776;48.260;8.928;2022-09-09T12:34:44;2.40;;;0.70;;
1725;SDS011;41776;48.260;8.928;2022-09-09T12:37:17;6.45;;;0.50;;
1725;SDS011;41776;48.260;8.928;2022-09-09T12:39:53;2.15;;;0.57;;
1725;SDS011;41776;48.260;8.928;2022-09-09T12:42:21;2.58;;;0.68;;
1725;SDS011;41776;48.260;8.928;2022-09-09T12:44:56;3.92;;;0.60;;
1725;SDS011;41776;48.260;8.928;2022-09-09T12:47:26;1.50;;;0.60;;
1725;SDS011;41776;48.260;8.928;2022-09-09T12:50:01;3.45;;;0.75;;
1725;SDS011;41776;48.260;8.928;2022-09-09T12:52:29;1.92;;;0.43;;
1725;SDS011;41776;48.260;8.928;2022-09-09T12:55:01;0.68;;;0.40;;
1725;SDS011;41776;48.260;8.928;2022-09-09T12:57:31;4.10;;;0.50;;
1725;SDS011;41776;48.260;8.928;2022-09-09T13:00:05;5.78;;;0.88;;
1725;SDS011;41776;48.260;8.928;2022-09-09T13:02:44;6.93;;;0.70;;
1725;SDS011;41776;48.260;8.928;2022-09-09T13:05:13;6.78;;;0.98;;
1725;SDS011;41776;48.260;8.928;2022-09-09T13:07:42;5.82;;;0.60;;
1725;SDS011;41776;48.260;8.928;2022-09-09T13:10:12;6.20;;;0.70;;
1725;SDS011;41776;48.260;8.928;2022-09-09T13:12:39;1.85;;;0.60;;
1725;SDS011;41776;48.260;8.928;2022-09-09T13:15:10;4.30;;;0.75;;
1725;SDS011;41776;48.260;8.928;2022-09-09T13:17:49;3.33;;;0.85;;
1725;SDS011;41776;48.260;8.928;2022-09-09T13:20:19;2.70;;;0.70;;
1725;SDS011;41776;48.260;8.928;2022-09-09T13:22:47;7.55;;;0.77;;
1725;SDS011;41776;48.260;8.928;2022-09-09T13:25:21;1.58;;;0.50;;
1725;SDS011;41776;48.260;8.928;2022-09-09T13:27:52;1.65;;;0.40;;
1725;SDS011;41776;48.260;8.928;2022-09-09T13:30:21;6.18;;;0.50;;
1725;SDS011;41776;48.260;8.928;2022-09-09T13:32:59;2.35;;;0.50;;
1725;SDS011;41776;48.260;8.928;2022-09-09T13:35:27;3.13;;;0.73;;
1725;SDS011;41776;48.260;8.928;2022-09-09T13:37:56;2.20;;;0.60;;
1725;SDS011;41776;48.260;8.928;2022-09-09T13:40:24;2.40;;;0.60;;
1725;SDS011;41776;48.260;8.928;2022-09-09T13:42:51;0.82;;;0.30;;
1725;SDS011;41776;48.260;8.928;2022-09-09T13:45:21;1.60;;;0.50;;
1725;SDS011;41776;48.260;8.928;2022-09-09T13:47:51;3.22;;;0.80;;
1725;SDS011;41776;48.260;8.928;2022-09-09T13:50:34;3.40;;;0.60;;
1725;SDS011;41776;48.260;8.928;2022-09-09T13:53:01;2.42;;;0.45;;
1725;SDS011;41776;48.260;8.928;2022-09-09T13:55:29;2.53;;;0.63;;
1725;SDS011;41776;48.260;8.928;2022-09-09T13:57:57;2.95;;;0.55;;
1725;SDS011;41776;48.260;8.928;2022-09-09T14:00:28;3.45;;;0.80;;
1725;SDS011;41776;48.260;8.928;2022-09-09T14:02:56;3.38;;;0.60;;
1725;SDS011;41776;48.260;8.928;2022-09-09T14:05:25;3.92;;;0.75;;
1725;SDS011;41776;48.260;8.928;2022-09-09T14:07:52;1.30;;;0.50;;
1725;SDS011;41776;48.260;8.928;2022-09-09T14:10:19;5.38;;;0.75;;
1725;SDS011;41776;48.260;8.928;2022-09-09T14:12:49;4.72;;;0.60;;
1725;SDS011;41776;48.260;8.928;2022-09-09T14:15:16;1.80;;;0.57;;
1725;SDS011;41776;48.260;8.928;2022-09-09T14:17:46;1.58;;;0.43;;
1725;SDS011;41776;48.260;8.928;2022-09-09T14:20:13;4.07;;;0.52;;
1725;SDS011;41776;48.260;8.928;2022-09-09T14:22:44;2.25;;;0.55;;
1725;SDS011;41776;48.260;8.928;2022-09-09T14:25:11;5.07;;;0.73;;
1725;SDS011;41776;48.260;8.928;2022-09-09T14:27:38;1.27;;;0.40;;
1725;SDS011;41776;48.260;8.928;2022-09-09T14:30:10;4.45;;;0.68;;
1725;SDS011;41776;48.260;8.928;2022-09-09T14:32:43;4.80;;;0.60;;
1725;SDS011;41776;48.260;8.928;2022-09-09T14:35:13;1.58;;;0.40;;
1725;SDS011;41776;48.260;8.928;2022-09-09T14:37:42;2.40;;;0.50;;
1725;SDS011;41776;48.260;8.928;2022-09-09T14:40:17;3.38;;;0.60;;
1725;SDS011;41776;48.260;8.928;2022-09-09T14:42:44;3.50;;;0.63;;
1725;SDS011;41776;48.260;8.928;2022-09-09T14:45:16;3.00;;;0.60;;
1725;SDS011;41776;48.260;8.928;2022-09-09T14:47:47;3.90;;;0.65;;
1725;SDS011;41776;48.260;8.928;2022-09-09T14:50:15;3.65;;;0.65;;
1725;SDS011;41776;48.260;8.928;2022-09-09T14:52:42;2.97;;;0.57;;
1725;SDS011;41776;48.260;8.928;2022-09-09T14:55:08;1.40;;;0.50;;
1725;SDS011;41776;48.260;8.928;2022-09-09T14:57:38;2.92;;;0.77;;
1725;SDS011;41776;48.260;8.928;2022-09-09T15:00:05;2.53;;;0.63;;
1725;SDS011;41776;48.260;8.928;2022-09-09T15:02:35;1.65;;;0.65;;
1725;SDS011;41776;48.260;8.928;2022-09-09T15:05:01;3.40;;;0.70;;
1725;SDS011;41776;48.260;8.928;2022-09-09T15:07:29;2.78;;;0.50;;
1725;SDS011;41776;48.260;8.928;2022-09-09T15:09:56;3.33;;;0.60;;
1725;SDS011;41776;48.260;8.928;2022-09-09T15:12:26;1.20;;;0.50;;
1725;SDS011;41776;48.260;8.928;2022-09-09T15:14:53;1.10;;;0.30;;
1725;SDS011;41776;48.260;8.928;2022-09-09T15:17:21;2.90;;;0.68;;
1725;SDS011;41776;48.260;8.928;2022-09-09T15:19:50;0.85;;;0.45;;
1725;SDS011;41776;48.260;8.928;2022-09-09T15:22:17;1.33;;;0.50;;
1725;SDS011;41776;48.260;8.928;2022-09-09T15:24:44;0.63;;;0.40;;
1725;SDS011;41776;48.260;8.928;2022-09-09T15:27:10;0.82;;;0.40;;
1725;SDS011;41776;48.260;8.928;2022-09-09T15:29:37;1.30;;;0.38;;
1725;SDS011;41776;48.260;8.928;2022-09-09T15:32:04;0.77;;;0.30;;